Time;durP1;ratioP1;P1;durP2;ratioP2;P2;SDS_P1;SDS_P2;PMS_P1;PMS_P2;Temp;Humidity;BMP_temperature;BMP_pressure;BME280_temperature;BME280_humidity;BME280_pressure;Samples;Min_cycle;Max_cycle;Signal;HPM_P1;HPM_P2
2022/08/10 00:01:52;;;;;;;1.77;1.27;;;23.40;45.20;;;;;;5060498;28;20484;-49
2022/08/10 00:04:22;;;;;;;1.67;1.00;;;23.30;45.20;;;;;;5052213;28;20048;-53
2022/08/10 00:06:53;;;;;;;1.73;1.08;;;23.30;45.40;;;;;;5068793;28;20068;-51
2022/08/10 00:09:25;;;;;;;1.98;1.25;;;23.30;45.70;;;;;;5051131;28;20044;-51
2022/08/10 00:11:55;;;;;;;1.00;0.98;;;23.30;45.60;;;;;;5050478;28;20041;-53
2022/08/10 00:14:23;;;;;;;1.10;1.10;;;23.20;45.50;;;;;;5056719;28;20409;-51
2022/08/10 00:16:51;;;;;;;1.70;1.50;;;23.20;45.70;;;;;;5068878;28;20117;-52
2022/08/10 00:19:20;;;;;;;2.10;1.02;;;23.20;45.80;;;;;;5070352;28;20098;-49
2022/08/10 00:21:49;;;;;;;;;;;23.10;45.90;;;;;;5057492;28;20529;-53
2022/08/10 00:24:17;;;;;;;1.13;0.90;;;23.20;44.90;;;;;;5070661;28;19958;-47
2022/08/10 00:26:48;;;;;;;1.48;1.08;;;23.10;45.40;;;;;;5070564;28;20158;-47
2022/08/10 00:29:35;;;;;;;1.40;1.17;;;23.00;45.80;;;;;;5048056;28;20049;-51
2022/08/10 00:32:02;;;;;;;1.15;0.95;;;22.90;45.90;;;;;;5053226;28;20053;-53
2022/08/10 00:34:34;;;;;;;1.17;1.08;;;22.80;46.10;;;;;;5066235;28;20471;-50
2022/08/10 00:37:01;;;;;;;1.40;1.30;;;22.80;46.40;;;;;;5072196;28;20090;-50
2022/08/10 00:39:28;;;;;;;1.25;1.15;;;22.70;46.40;;;;;;5071879;28;20519;-51
2022/08/10 00:42:11;;;;;;;1.60;1.20;;;22.70;46.70;;;;;;5051255;28;20064;-49
2022/08/10 00:44:45;;;;;;;1.23;1.08;;;22.60;47.30;;;;;;5062521;28;20108;-53
2022/08/10 00:47:15;;;;;;;1.17;1.00;;;22.50;46.80;;;;;;5071882;28;20121;-52
2022/08/10 00:50:04;;;;;;;2.08;1.20;;;22.50;47.40;;;;;;5059847;28;20064;-51
2022/08/10 00:52:33;;;;;;;1.50;1.40;;;22.40;47.20;;;;;;5060268;28;20051;-48
2022/08/10 00:55:01;;;;;;;2.88;1.90;;;22.40;47.60;;;;;;5071411;28;20048;-48
2022/08/10 00:57:29;;;;;;;1.38;1.27;;;22.30;47.60;;;;;;5071867;28;20106;-50
2022/08/10 00:59:57;;;;;;;1.48;1.38;;;22.30;47.80;;;;;;5059086;28;20047;-49
2022/08/10 01:02:32;;;;;;;1.65;1.30;;;22.20;47.90;;;;;;5058651;28;20505;-50
2022/08/10 01:05:06;;;;;;;3.60;1.42;;;22.20;48.40;;;;;;5071094;28;20043;-50
2022/08/10 01:07:51;;;;;;;1.30;1.20;;;22.10;48.20;;;;;;5072173;28;20091;-51
2022/08/10 01:10:24;;;;;;;2.53;1.40;;;22.10;48.80;;;;;;5057285;28;20056;-51
2022/08/10 01:13:08;;;;;;;1.40;1.30;;;22.00;48.70;;;;;;5068808;28;20045;-53
2022/08/10 01:15:53;;;;;;;1.45;1.35;;;22.00;49.00;;;;;;5031204;28;20057;-53
2022/08/10 01:18:29;;;;;;;1.45;1.27;;;21.90;49.00;;;;;;5040040;28;20537;-51
2022/08/10 01:21:17;;;;;;;1.33;1.23;;;21.90;48.50;;;;;;5062612;28;20040;-53
2022/08/10 01:24:04;;;;;;;1.30;1.20;;;21.80;49.00;;;;;;5072481;28;20094;-50
2022/08/10 01:26:38;;;;;;;1.48;1.35;;;21.80;49.50;;;;;;5062936;28;20066;-52
2022/08/10 01:29:46;;;;;;;1.33;1.20;;;21.70;49.40;;;;;;5054570;28;20536;-51
2022/08/10 01:32:30;;;;;;;1.83;1.65;;;21.70;49.50;;;;;;5056307;28;20508;-53
2022/08/10 01:35:11;;;;;;;;;;;21.70;49.30;;;;;;5071440;28;20052;-53
2022/08/10 01:37:55;;;;;;;1.48;1.38;;;21.70;48.10;;;;;;5069341;28;19920;-49
2022/08/10 01:40:32;;;;;;;1.17;1.05;;;21.60;48.90;;;;;;5054332;28;20040;-49
2022/08/10 01:43:03;;;;;;;2.85;1.52;;;21.50;49.20;;;;;;5072529;28;20463;-52
2022/08/10 01:45:39;;;;;;;1.40;1.30;;;21.50;49.20;;;;;;5065897;28;20057;-48
2022/08/10 01:48:29;;;;;;;1.48;1.38;;;21.50;49.50;;;;;;5061975;28;20570;-53
2022/08/10 01:51:06;;;;;;;2.70;1.30;;;21.40;49.60;;;;;;5071647;28;20106;-50
2022/08/10 01:53:40;;;;;;;1.55;1.33;;;21.40;49.80;;;;;;5065324;28;20041;-53
2022/08/10 01:56:10;;;;;;;1.92;1.80;;;21.30;49.60;;;;;;5057109;28;20039;-51
2022/08/10 01:58:38;;;;;;;1.98;1.40;;;21.30;49.50;;;;;;5071090;28;20566;-49
2022/08/10 02:01:12;;;;;;;2.22;1.65;;;21.20;49.60;;;;;;5070703;28;20044;-53
2022/08/10 02:03:47;;;;;;;3.30;1.50;;;21.20;49.90;;;;;;5054087;28;20056;-48
2022/08/10 02:06:37;;;;;;;2.30;1.48;;;21.10;49.90;;;;;;5051753;28;20045;-50
2022/08/10 02:09:06;;;;;;;1.80;1.70;;;21.10;50.10;;;;;;5068985;28;20071;-48
2022/08/10 02:11:40;;;;;;;6.38;1.60;;;21.10;50.10;;;;;;5053186;28;20070;-47
2022/08/10 02:14:49;;;;;;;1.20;1.13;;;21.00;50.60;;;;;;5050070;28;20139;-50
2022/08/10 02:17:21;;;;;;;2.08;1.55;;;21.00;50.40;;;;;;5070037;28;20029;-47
2022/08/10 02:20:12;;;;;;;3.00;1.80;;;20.90;50.50;;;;;;5066477;28;20128;-51
2022/08/10 02:22:44;;;;;;;2.20;1.38;;;20.80;50.50;;;;;;5059279;28;20063;-49
2022/08/10 02:25:22;;;;;;;1.55;1.45;;;20.80;50.60;;;;;;5078939;22;20061;-51
2022/08/10 02:28:15;;;;;;;1.30;1.20;;;20.80;50.80;;;;;;5058083;28;20052;-53
2022/08/10 02:31:01;;;;;;;1.30;1.20;;;20.70;50.80;;;;;;5050120;28;20635;-53
2022/08/10 02:33:36;;;;;;;2.22;1.83;;;20.70;50.90;;;;;;5051417;28;20080;-53
2022/08/10 02:36:29;;;;;;;2.33;1.65;;;20.70;51.00;;;;;;5050214;28;20078;-50
2022/08/10 02:39:02;;;;;;;2.05;1.80;;;20.60;51.00;;;;;;5050753;28;20497;-50
2022/08/10 02:41:56;;;;;;;3.60;1.55;;;20.50;51.10;;;;;;5065472;28;20086;-52
2022/08/10 02:44:58;;;;;;;2.63;1.45;;;20.60;51.90;;;;;;5062281;28;20063;-52
2022/08/10 02:48:04;;;;;;;2.97;1.70;;;20.50;51.80;;;;;;5061979;28;20516;-53
2022/08/10 02:50:33;;;;;;;2.00;1.70;;;20.50;52.10;;;;;;5057684;28;20455;-53
2022/08/10 02:53:22;;;;;;;1.70;1.52;;;20.40;51.70;;;;;;5063594;28;20054;-50
2022/08/10 02:56:19;;;;;;;6.57;2.88;;;20.40;52.30;;;;;;5069230;28;20076;-55
2022/08/10 02:58:54;;;;;;;1.83;1.50;;;20.30;51.90;;;;;;5052214;28;20101;-55
2022/08/10 03:01:35;;;;;;;3.60;1.60;;;20.30;51.80;;;;;;5046954;28;20090;-53
2022/08/10 03:04:06;;;;;;;3.90;1.73;;;20.30;51.90;;;;;;5063959;28;20032;-55
2022/08/10 03:06:40;;;;;;;3.40;1.77;;;20.20;51.60;;;;;;5069916;28;20098;-51
2022/08/10 03:09:12;;;;;;;1.77;1.67;;;20.20;52.10;;;;;;5070041;28;20048;-52
2022/08/10 03:11:43;;;;;;;1.90;1.80;;;20.10;52.00;;;;;;5055765;28;20048;-54
2022/08/10 03:14:36;;;;;;;3.15;2.17;;;20.10;52.00;;;;;;5061930;28;20056;-56
2022/08/10 03:17:07;;;;;;;2.72;1.70;;;20.10;52.30;;;;;;5069863;28;20076;-50
2022/08/10 03:19:36;;;;;;;2.15;1.85;;;20.00;52.00;;;;;;5062490;28;20041;-54
2022/08/10 03:22:28;;;;;;;3.80;2.15;;;20.00;52.20;;;;;;5049968;28;20043;-52
2022/08/10 03:24:59;;;;;;;1.90;1.70;;;19.90;52.10;;;;;;5059930;28;20040;-54
2022/08/10 03:27:28;;;;;;;3.85;1.83;;;19.90;52.50;;;;;;5053737;28;20101;-51
2022/08/10 03:29:55;;;;;;;3.60;1.67;;;19.90;52.50;;;;;;5069179;28;20048;-54
2022/08/10 03:32:44;;;;;;;2.25;1.88;;;19.90;52.90;;;;;;5050969;28;20060;-53
2022/08/10 03:35:13;;;;;;;3.10;1.90;;;19.80;52.80;;;;;;5047632;28;20045;-56
2022/08/10 03:37:47;;;;;;;3.13;2.15;;;19.80;52.90;;;;;;5055931;28;20087;-52
2022/08/10 03:40:22;;;;;;;2.20;2.00;;;19.70;53.10;;;;;;5052619;28;20041;-55
2022/08/10 03:43:12;;;;;;;3.45;2.33;;;19.80;53.40;;;;;;5065833;28;20490;-55
2022/08/10 03:45:48;;;;;;;3.30;2.40;;;19.70;53.50;;;;;;5067370;28;20078;-55
2022/08/10 03:48:26;;;;;;;2.20;2.00;;;19.70;53.40;;;;;;5056483;28;20036;-55
2022/08/10 03:51:17;;;;;;;2.42;1.80;;;19.80;53.60;;;;;;5067953;28;20040;-52
2022/08/10 03:53:50;;;;;;;2.50;2.25;;;19.70;53.50;;;;;;5070839;28;20618;-52
2022/08/10 03:56:38;;;;;;;2.30;1.70;;;19.70;53.70;;;;;;5051041;28;20099;-56
2022/08/10 03:59:08;;;;;;;2.75;2.35;;;19.70;54.10;;;;;;5059310;28;20048;-55
2022/08/10 04:01:35;;;;;;;4.35;2.42;;;19.70;53.80;;;;;;5073874;28;20106;-54
2022/08/10 04:04:23;;;;;;;2.65;2.25;;;19.70;53.80;;;;;;5073190;28;20045;-55
2022/08/10 04:06:53;;;;;;;3.38;2.30;;;19.60;53.70;;;;;;5056126;28;20046;-53
2022/08/10 04:09:27;;;;;;;2.92;2.67;;;19.60;54.00;;;;;;5058338;28;20068;-54
2022/08/10 04:12:15;;;;;;;2.40;2.08;;;19.60;54.50;;;;;;5056180;28;20079;-54
2022/08/10 04:14:44;;;;;;;2.40;2.20;;;19.60;53.90;;;;;;5054540;28;20405;-52
2022/08/10 04:17:20;;;;;;;2.60;2.08;;;19.50;54.10;;;;;;5060034;28;20120;-52
2022/08/10 04:20:30;;;;;;;2.40;2.05;;;19.50;54.40;;;;;;5063585;28;20041;-52
2022/08/10 04:23:07;;;;;;;3.88;2.53;;;19.50;54.90;;;;;;5074637;28;20047;-51
2022/08/10 04:25:34;;;;;;;2.67;2.47;;;19.60;54.50;;;;;;5054194;28;20044;-51
2022/08/10 04:28:12;;;;;;;2.47;2.28;;;19.60;54.60;;;;;;5069883;28;20029;-54
2022/08/10 04:30:40;;;;;;;2.70;2.42;;;19.50;54.70;;;;;;5072518;28;20056;-51
2022/08/10 04:33:08;;;;;;;3.63;2.17;;;19.50;55.20;;;;;;5067011;28;20041;-54
2022/08/10 04:35:38;;;;;;;4.60;3.00;;;19.50;55.30;;;;;;5042563;28;20056;-51
2022/08/10 04:38:08;;;;;;;3.65;2.72;;;19.50;55.60;;;;;;5054740;28;20056;-52
2022/08/10 04:40:35;;;;;;;4.93;3.85;;;19.50;55.50;;;;;;5071043;28;20485;-52
2022/08/10 04:43:06;;;;;;;2.88;2.47;;;19.50;55.70;;;;;;5059135;28;20041;-51
2022/08/10 04:45:42;;;;;;;5.40;2.63;;;19.50;55.90;;;;;;5052653;28;20064;-53
2022/08/10 04:48:26;;;;;;;5.95;3.08;;;19.50;55.80;;;;;;5045427;28;20466;-52
2022/08/10 04:51:16;;;;;;;4.33;3.30;;;19.50;57.10;;;;;;5053424;28;20045;-52
2022/08/10 04:53:49;;;;;;;3.13;2.83;;;19.60;57.10;;;;;;5058294;28;20295;-52
2022/08/10 04:56:32;;;;;;;3.30;3.00;;;19.60;56.90;;;;;;5048058;28;20061;-52
2022/08/10 04:59:01;;;;;;;3.97;2.47;;;19.60;56.40;;;;;;5062953;28;20056;-56
2022/08/10 05:01:28;;;;;;;7.85;3.30;;;19.60;56.60;;;;;;5050328;28;20098;-54
2022/08/10 05:04:22;;;;;;;3.65;2.80;;;19.70;56.80;;;;;;5034830;28;20456;-54
2022/08/10 05:07:06;;;;;;;5.18;3.40;;;19.70;57.00;;;;;;5055664;28;20132;-53
2022/08/10 05:09:39;;;;;;;8.10;3.63;;;19.70;57.30;;;;;;5056826;28;20127;-51
2022/08/10 05:12:26;;;;;;;5.03;3.58;;;19.80;58.00;;;;;;5039884;28;20165;-55
2022/08/10 05:14:53;;;;;;;3.50;2.63;;;19.90;57.70;;;;;;5048458;28;20473;-55
2022/08/10 05:17:21;;;;;;;5.07;3.17;;;19.90;57.90;;;;;;5049907;28;20114;-55
2022/08/10 05:19:48;;;;;;;5.18;2.80;;;20.00;58.10;;;;;;5050958;28;20040;-51
2022/08/10 05:22:36;;;;;;;5.60;2.85;;;20.00;58.10;;;;;;5048178;28;20041;-55
2022/08/10 05:25:06;;;;;;;5.63;2.75;;;20.10;58.60;;;;;;5049961;28;20039;-53
2022/08/10 05:27:33;;;;;;;4.32;3.00;;;20.10;58.20;;;;;;5051889;28;20436;-55
2022/08/10 05:30:01;;;;;;;3.80;3.20;;;20.20;58.20;;;;;;5060587;28;20501;-51
2022/08/10 05:32:33;;;;;;;4.40;2.97;;;20.30;58.20;;;;;;5053117;28;20068;-52
2022/08/10 05:35:20;;;;;;;6.50;3.10;;;20.30;59.10;;;;;;5045702;28;20568;-51
2022/08/10 05:37:49;;;;;;;4.80;3.42;;;20.40;58.10;;;;;;5053589;28;20053;-51
2022/08/10 05:40:38;;;;;;;2.92;2.72;;;20.50;58.00;;;;;;5052044;28;20124;-51
2022/08/10 05:43:05;;;;;;;4.07;2.65;;;20.60;58.10;;;;;;5068580;28;20040;-52
2022/08/10 05:45:31;;;;;;;4.22;3.17;;;20.60;57.70;;;;;;5069842;28;20104;-53
2022/08/10 05:47:58;;;;;;;5.05;3.42;;;20.60;57.80;;;;;;5059224;28;20075;-52
2022/08/10 05:50:45;;;;;;;5.13;3.50;;;20.70;57.90;;;;;;5050374;28;20120;-51
2022/08/10 05:53:12;;;;;;;6.50;3.50;;;20.80;57.80;;;;;;5044091;28;20045;-51
2022/08/10 05:55:59;;;;;;;3.40;3.10;;;20.80;57.70;;;;;;5048604;28;20106;-51
2022/08/10 05:58:26;;;;;;;3.72;3.40;;;20.90;57.70;;;;;;5048708;28;20102;-53
2022/08/10 06:00:55;;;;;;;3.75;3.00;;;20.90;57.60;;;;;;5061442;28;20566;-53
2022/08/10 06:03:28;;;;;;;10.35;3.58;;;21.00;57.80;;;;;;5055015;28;20413;-54
2022/08/10 06:05:57;;;;;;;3.55;3.25;;;21.00;58.00;;;;;;5069833;28;20044;-52
2022/08/10 06:08:27;;;;;;;4.97;3.28;;;21.10;57.80;;;;;;5051446;28;20076;-53
2022/08/10 06:10:55;;;;;;;6.78;4.40;;;21.10;57.80;;;;;;5053443;28;20114;-53
2022/08/10 06:16:42;;;;;;;4.78;3.75;;;21.30;57.60;;;;;;5043981;28;20048;-53
2022/08/10 06:19:11;;;;;;;3.92;3.60;;;21.30;57.10;;;;;;5054047;28;20080;-54
2022/08/10 06:21:42;;;;;;;5.18;3.90;;;21.40;57.60;;;;;;5063683;28;20487;-51
2022/08/10 06:24:30;;;;;;;7.13;3.88;;;21.40;57.30;;;;;;5043611;28;20107;-55
2022/08/10 06:26:58;;;;;;;4.80;3.97;;;21.50;57.10;;;;;;5041787;28;20076;-51
2022/08/10 06:29:28;;;;;;;5.07;3.92;;;21.50;57.10;;;;;;5054215;28;20045;-52
2022/08/10 06:31:56;;;;;;;4.15;3.75;;;21.50;56.80;;;;;;5070341;28;20044;-51
2022/08/10 06:34:31;;;;;;;7.13;4.43;;;21.60;56.70;;;;;;5070268;28;20044;-54
2022/08/10 06:37:01;;;;;;;7.55;3.50;;;21.70;56.90;;;;;;5031377;28;20053;-54
2022/08/10 06:39:28;;;;;;;4.38;3.40;;;21.70;56.80;;;;;;5058380;28;20048;-53
2022/08/10 06:42:23;;;;;;;4.32;3.83;;;21.70;56.60;;;;;;5049527;28;20041;-52
2022/08/10 06:44:57;;;;;;;6.47;3.40;;;21.80;56.80;;;;;;5047659;28;20033;-51
2022/08/10 06:47:30;;;;;;;6.65;3.50;;;21.80;56.30;;;;;;5053207;28;20037;-53
2022/08/10 06:50:09;;;;;;;3.88;3.47;;;21.90;57.10;;;;;;5058481;28;20037;-53
2022/08/10 06:52:36;;;;;;;5.20;3.63;;;21.90;56.20;;;;;;5062140;28;20437;-51
2022/08/10 06:55:06;;;;;;;4.90;4.07;;;21.90;55.70;;;;;;5049047;28;20040;-51
2022/08/10 06:57:37;;;;;;;5.10;3.60;;;22.00;55.70;;;;;;5056683;28;20041;-52
2022/08/10 07:00:06;;;;;;;4.80;3.70;;;22.00;55.40;;;;;;5069374;28;20398;-53
2022/08/10 07:02:55;;;;;;;7.20;4.20;;;22.10;55.50;;;;;;5070154;28;20037;-51
2022/08/10 07:05:27;;;;;;;4.03;2.97;;;22.20;55.40;;;;;;5052585;28;20060;-54
2022/08/10 07:07:57;;;;;;;6.32;3.55;;;22.20;55.10;;;;;;5048707;28;20099;-54
2022/08/10 07:10:26;;;;;;;5.30;3.38;;;22.30;54.80;;;;;;5060240;28;20136;-55
2022/08/10 07:13:15;;;;;;;8.55;3.15;;;22.30;54.60;;;;;;5030881;28;20053;-51
2022/08/10 07:16:03;;;;;;;5.25;3.47;;;22.40;54.60;;;;;;5052439;28;20132;-51
2022/08/10 07:18:32;;;;;;;5.15;3.08;;;22.50;54.60;;;;;;5069604;28;20040;-51
2022/08/10 07:21:02;;;;;;;4.35;3.85;;;22.50;54.40;;;;;;5063829;28;20397;-56
2022/08/10 07:23:30;;;;;;;5.15;3.10;;;22.60;54.20;;;;;;5044179;28;20037;-55
2022/08/10 07:26:18;;;;;;;4.18;3.15;;;22.60;54.10;;;;;;5055026;28;20087;-53
2022/08/10 07:28:49;;;;;;;7.20;2.72;;;22.70;54.70;;;;;;5053475;28;20090;-54
2022/08/10 07:31:20;;;;;;;3.60;2.72;;;22.80;54.00;;;;;;5037726;28;20052;-54
2022/08/10 07:34:08;;;;;;;4.57;3.60;;;22.80;53.80;;;;;;5045731;28;20144;-53
2022/08/10 07:36:37;;;;;;;6.13;3.53;;;22.90;53.20;;;;;;5045945;28;20787;-50
2022/08/10 07:39:05;;;;;;;6.07;3.00;;;23.00;53.40;;;;;;5044753;28;20052;-53
2022/08/10 07:41:33;;;;;;;3.58;2.90;;;23.00;53.00;;;;;;5063391;28;20101;-55
2022/08/10 07:44:03;;;;;;;6.75;3.72;;;23.10;52.80;;;;;;5053563;28;20044;-52
2022/08/10 07:46:32;;;;;;;5.63;3.10;;;23.20;53.00;;;;;;5061721;28;20064;-55
2022/08/10 07:49:03;;;;;;;4.55;2.75;;;23.30;52.70;;;;;;5046891;28;20559;-52
2022/08/10 07:51:48;;;;;;;5.30;3.25;;;23.30;52.40;;;;;;5041447;28;20053;-55
2022/08/10 07:54:24;;;;;;;4.78;2.83;;;23.40;52.00;;;;;;5047089;28;20037;-55
2022/08/10 07:56:54;;;;;;;5.82;3.20;;;23.50;51.90;;;;;;5060818;28;20519;-55
2022/08/10 07:59:54;;;;;;;3.30;2.88;;;23.60;52.00;;;;;;5035156;28;20040;-52
2022/08/10 08:02:33;;;;;;;7.07;3.38;;;23.70;51.60;;;;;;5033199;28;20759;-54
2022/08/10 08:05:07;;;;;;;6.78;2.70;;;23.70;51.40;;;;;;5055885;28;20063;-55
2022/08/10 08:07:36;;;;;;;6.10;3.13;;;23.80;51.20;;;;;;5068930;28;20048;-51
2022/08/10 08:10:05;;;;;;;8.02;2.70;;;23.80;51.00;;;;;;5050313;28;20091;-53
2022/08/10 08:12:33;;;;;;;5.40;2.92;;;23.90;50.60;;;;;;5054960;28;20033;-51
2022/08/10 08:15:07;;;;;;;8.23;3.28;;;24.00;50.60;;;;;;5066403;28;20040;-54
2022/08/10 08:17:55;;;;;;;5.45;2.53;;;24.00;50.40;;;;;;5043259;28;20120;-54
2022/08/10 08:20:27;;;;;;;;;;;24.10;50.10;;;;;;5053595;28;20075;-52
2022/08/10 08:22:55;;;;;;;5.00;2.58;;;24.20;50.70;;;;;;5060185;28;20347;-55
2022/08/10 08:25:44;;;;;;;3.80;2.78;;;24.30;49.70;;;;;;5056096;28;20049;-53
2022/08/10 08:28:11;;;;;;;6.95;3.17;;;24.30;49.50;;;;;;5049631;28;20041;-51
2022/08/10 08:30:40;;;;;;;8.05;2.90;;;24.40;49.80;;;;;;5045148;28;20099;-54
2022/08/10 08:33:17;;;;;;;4.45;2.60;;;24.40;49.40;;;;;;5044791;28;20124;-51
2022/08/10 08:36:05;;;;;;;6.25;3.55;;;24.60;49.60;;;;;;5039663;28;20043;-54
2022/08/10 08:38:34;;;;;;;3.90;3.20;;;24.60;49.20;;;;;;5042824;28;20033;-50
2022/08/10 08:41:19;;;;;;;5.05;3.22;;;24.60;49.10;;;;;;5052507;28;20041;-50
2022/08/10 08:44:02;;;;;;;3.72;2.90;;;24.70;48.90;;;;;;5071830;28;20447;-56
2022/08/10 08:47:12;;;;;;;5.38;2.78;;;24.80;48.70;;;;;;5054314;28;20536;-55
2022/08/10 08:50:14;;;;;;;5.97;3.15;;;24.90;48.60;;;;;;4950192;28;20071;-51
2022/08/10 08:52:55;;;;;;;3.20;2.90;;;25.00;47.80;;;;;;5066920;28;20455;-51
2022/08/10 08:55:37;;;;;;;6.82;2.97;;;25.10;47.70;;;;;;5056515;28;20048;-52
2022/08/10 08:58:46;;;;;;;5.97;2.83;;;25.10;47.50;;;;;;5053934;28;20143;-53
2022/08/10 09:01:29;;;;;;;3.97;2.80;;;25.20;47.00;;;;;;5058572;28;20450;-52
2022/08/10 09:04:26;;;;;;;4.57;2.90;;;25.30;46.70;;;;;;5055225;28;20083;-51
2022/08/10 09:07:14;;;;;;;3.78;2.90;;;25.30;46.50;;;;;;5055247;28;20090;-51
2022/08/10 09:10:19;;;;;;;5.20;2.67;;;25.50;46.80;;;;;;5061011;28;20055;-51
2022/08/10 09:13:11;;;;;;;6.50;2.63;;;25.60;46.10;;;;;;5034621;28;20590;-52
2022/08/10 09:16:04;;;;;;;7.65;2.42;;;25.60;45.90;;;;;;5031546;28;20122;-54
2022/08/10 09:18:45;;;;;;;5.95;2.25;;;25.70;45.80;;;;;;5043878;28;20045;-55
2022/08/10 09:21:16;;;;;;;3.95;2.50;;;25.80;45.90;;;;;;5071166;28;20110;-54
2022/08/10 09:24:04;;;;;;;4.85;2.33;;;25.80;44.80;;;;;;5064353;28;20041;-51
2022/08/10 09:26:40;;;;;;;4.97;2.97;;;26.00;43.80;;;;;;5057767;28;20085;-51
2022/08/10 09:29:11;;;;;;;6.13;2.60;;;26.00;43.90;;;;;;5072983;28;20098;-51
2022/08/10 09:31:49;;;;;;;2.35;2.03;;;26.10;43.60;;;;;;5055309;28;20139;-54
2022/08/10 09:35:10;;;;;;;6.00;2.70;;;26.30;43.30;;;;;;5049950;28;20123;-51
2022/08/10 09:38:21;;;;;;;3.42;2.42;;;26.30;43.00;;;;;;5059872;28;20078;-52
2022/08/10 09:41:15;;;;;;;5.43;2.63;;;26.50;42.30;;;;;;5056600;28;20194;-52
2022/08/10 09:44:06;;;;;;;6.18;2.85;;;26.50;42.70;;;;;;5043304;28;20673;-53
2022/08/10 09:46:41;;;;;;;5.55;2.70;;;26.60;41.90;;;;;;5043725;28;20701;-53
2022/08/10 09:49:18;;;;;;;4.60;2.30;;;26.70;41.40;;;;;;5051468;28;20045;-54
2022/08/10 09:52:12;;;;;;;2.55;2.35;;;26.80;41.50;;;;;;5064303;28;20083;-52
2022/08/10 09:54:59;;;;;;;2.70;2.45;;;26.80;41.10;;;;;;5043605;28;20037;-55
2022/08/10 09:57:50;;;;;;;3.05;2.38;;;26.90;40.10;;;;;;5056467;28;20047;-53
2022/08/10 10:00:29;;;;;;;3.15;2.42;;;26.90;40.40;;;;;;5035035;28;20044;-55
2022/08/10 10:03:13;;;;;;;5.47;2.58;;;27.00;40.20;;;;;;5048446;28;20061;-54
2022/08/10 10:05:57;;;;;;;2.90;2.50;;;27.10;39.90;;;;;;5068336;28;20044;-52
2022/08/10 10:08:36;;;;;;;7.60;2.05;;;27.20;40.00;;;;;;5046046;28;20106;-54
2022/08/10 10:11:25;;;;;;;2.13;2.00;;;27.30;39.40;;;;;;5051173;28;20509;-54
2022/08/10 10:14:15;;;;;;;3.95;2.60;;;27.40;39.80;;;;;;5052953;28;20492;-52
2022/08/10 10:17:02;;;;;;;4.20;2.90;;;27.40;39.90;;;;;;5057985;28;20048;-54
2022/08/10 10:19:49;;;;;;;3.10;2.30;;;27.50;39.80;;;;;;5063276;28;20076;-53
2022/08/10 10:22:35;;;;;;;4.55;2.33;;;27.60;39.90;;;;;;5056946;28;20040;-55
2022/08/10 10:25:38;;;;;;;3.22;2.30;;;27.70;38.90;;;;;;5062534;28;20087;-52
2022/08/10 10:28:36;;;;;;;3.00;2.42;;;27.80;39.60;;;;;;5050059;28;20557;-52
2022/08/10 10:31:43;;;;;;;3.65;2.08;;;27.90;38.50;;;;;;5048836;28;20044;-53
2022/08/10 10:34:23;;;;;;;3.67;2.08;;;28.00;37.80;;;;;;5064464;28;20048;-57
2022/08/10 10:36:51;;;;;;;8.90;2.53;;;28.10;37.70;;;;;;5069003;28;20044;-55
2022/08/10 10:39:20;;;;;;;1.80;1.70;;;28.10;37.80;;;;;;5063978;28;20053;-55
2022/08/10 10:42:29;;;;;;;2.83;2.05;;;28.20;37.70;;;;;;5045641;28;20051;-54
2022/08/10 10:45:17;;;;;;;2.45;2.35;;;28.30;37.40;;;;;;5019888;28;20131;-54
2022/08/10 10:48:12;;;;;;;4.82;2.15;;;28.40;37.20;;;;;;5038408;28;20141;-56
2022/08/10 10:51:26;;;;;;;2.65;2.00;;;28.50;37.50;;;;;;5041765;28;20493;-53
2022/08/10 10:54:08;;;;;;;2.17;2.08;;;28.50;37.80;;;;;;5041180;28;20379;-54
2022/08/10 10:57:08;;;;;;;4.55;2.28;;;28.60;36.80;;;;;;5038931;28;20067;-55
2022/08/10 10:59:54;;;;;;;2.33;2.10;;;28.70;37.10;;;;;;5044260;28;20099;-53
2022/08/10 11:02:57;;;;;;;5.30;2.45;;;28.70;36.20;;;;;;5041198;28;20565;-53
2022/08/10 11:05:41;;;;;;;2.22;2.00;;;28.80;36.30;;;;;;5036819;28;20068;-55
2022/08/10 11:08:11;;;;;;;4.65;2.25;;;28.90;36.60;;;;;;5044997;28;20091;-55
2022/08/10 11:10:50;;;;;;;4.13;2.35;;;28.90;36.60;;;;;;5040059;28;20045;-52
2022/08/10 11:13:27;;;;;;;2.63;2.40;;;29.00;36.50;;;;;;5041710;28;20110;-53
2022/08/10 11:16:35;;;;;;;2.78;2.50;;;29.00;35.70;;;;;;5040570;28;20162;-54
2022/08/10 11:19:25;;;;;;;3.60;2.65;;;29.10;36.10;;;;;;5043361;28;20069;-54
2022/08/10 11:22:27;;;;;;;2.65;2.45;;;29.10;35.80;;;;;;5024436;28;20061;-55
2022/08/10 11:25:19;;;;;;;2.30;2.10;;;29.20;35.70;;;;;;5040936;28;20102;-52
2022/08/10 11:28:09;;;;;;;2.78;2.30;;;29.30;35.80;;;;;;5049886;28;20041;-55
2022/08/10 11:30:46;;;;;;;2.80;2.47;;;29.30;35.20;;;;;;5056596;28;20110;-56
2022/08/10 11:33:30;;;;;;;5.82;2.67;;;29.40;35.30;;;;;;5069128;28;20133;-54
2022/08/10 11:36:28;;;;;;;2.90;2.22;;;29.50;35.40;;;;;;5044411;28;20456;-51
2022/08/10 11:39:13;;;;;;;2.70;2.50;;;29.60;36.00;;;;;;5055652;28;20079;-56
2022/08/10 11:41:52;;;;;;;2.22;2.13;;;29.70;35.50;;;;;;5064452;28;20036;-54
2022/08/10 11:45:01;;;;;;;7.40;3.03;;;29.80;34.70;;;;;;5068890;28;20052;-53
2022/08/10 11:47:40;;;;;;;4.65;2.38;;;29.80;35.10;;;;;;5053477;28;20075;-56
2022/08/10 11:50:22;;;;;;;4.18;2.63;;;29.90;34.90;;;;;;5031838;28;20524;-54
2022/08/10 11:53:18;;;;;;;4.28;2.60;;;30.00;34.90;;;;;;5069164;28;20098;-52
2022/08/10 11:55:51;;;;;;;5.85;2.80;;;30.10;34.30;;;;;;5045956;28;20095;-53
2022/08/10 12:01:10;;;;;;;2.67;2.47;;;30.20;34.10;;;;;;5060819;28;20052;-53
2022/08/10 12:03:40;;;;;;;2.53;2.30;;;30.30;33.90;;;;;;5026173;28;20041;-55
2022/08/10 12:06:12;;;;;;;2.40;2.15;;;30.40;33.30;;;;;;5044595;28;20041;-56
2022/08/10 12:08:45;;;;;;;2.15;2.05;;;30.40;33.40;;;;;;5039739;28;20427;-53
2022/08/10 12:11:33;;;;;;;4.88;2.35;;;30.50;33.40;;;;;;5046192;28;20045;-52
2022/08/10 12:14:03;;;;;;;3.00;1.90;;;30.60;33.10;;;;;;5046309;28;20071;-54
2022/08/10 12:17:11;;;;;;;2.17;1.98;;;30.70;33.00;;;;;;5047682;28;20120;-56
2022/08/10 12:20:03;;;;;;;3.03;2.10;;;30.80;33.30;;;;;;5043827;28;20394;-52
2022/08/10 12:22:37;;;;;;;3.00;1.97;;;30.90;32.80;;;;;;5041516;28;20537;-55
2022/08/10 12:25:10;;;;;;;3.83;2.53;;;30.90;31.90;;;;;;5049060;28;20044;-57
2022/08/10 12:27:53;;;;;;;1.98;1.88;;;31.00;31.90;;;;;;5045690;28;20040;-55
2022/08/10 12:30:34;;;;;;;3.55;1.90;;;31.10;32.30;;;;;;5037948;28;20045;-53
2022/08/10 12:33:37;;;;;;;4.57;1.90;;;31.20;32.30;;;;;;5048627;28;20529;-53
2022/08/10 12:36:31;;;;;;;;;;;31.20;31.60;;;;;;5073596;28;20520;-51
2022/08/10 12:39:17;;;;;;;2.35;1.83;;;31.40;33.30;;;;;;5072806;28;19924;-55
2022/08/10 12:42:05;;;;;;;2.83;2.20;;;31.40;32.30;;;;;;5043023;28;20044;-56
2022/08/10 12:44:45;;;;;;;4.38;2.00;;;31.50;31.60;;;;;;5051866;28;20033;-54
2022/08/10 12:47:30;;;;;;;4.00;2.15;;;31.60;31.80;;;;;;5045586;28;20429;-57
2022/08/10 12:50:01;;;;;;;2.95;1.80;;;31.70;31.10;;;;;;5045103;28;20106;-55
2022/08/10 12:53:01;;;;;;;2.72;2.17;;;31.70;31.10;;;;;;5043652;28;20124;-51
2022/08/10 12:55:36;;;;;;;2.08;1.95;;;31.80;30.70;;;;;;5043772;28;20128;-56
2022/08/10 12:58:06;;;;;;;3.78;2.70;;;31.90;31.10;;;;;;5043556;28;20086;-53
2022/08/10 13:00:54;;;;;;;4.50;2.13;;;32.00;30.90;;;;;;5049531;28;20045;-52
2022/08/10 13:03:46;;;;;;;2.47;2.22;;;32.10;30.70;;;;;;5046264;28;20123;-55
2022/08/10 13:06:35;;;;;;;6.78;2.47;;;32.20;30.30;;;;;;5044068;28;20033;-57
2022/08/10 13:09:08;;;;;;;2.22;2.00;;;32.30;30.50;;;;;;5050281;28;20677;-55
2022/08/10 13:11:58;;;;;;;3.03;2.20;;;32.40;30.60;;;;;;5056139;28;20041;-51
2022/08/10 13:14:50;;;;;;;5.15;2.10;;;32.60;30.90;;;;;;5043339;28;20099;-55
2022/08/10 13:17:24;;;;;;;3.00;2.22;;;32.70;30.00;;;;;;5041989;28;20049;-53
2022/08/10 13:20:16;;;;;;;2.42;1.95;;;32.70;29.70;;;;;;5048363;28;20033;-56
2022/08/10 13:22:46;;;;;;;6.25;2.40;;;32.90;29.60;;;;;;5043561;28;20048;-55
2022/08/10 13:25:21;;;;;;;4.82;2.63;;;33.00;30.20;;;;;;5048027;28;20041;-58
2022/08/10 13:27:48;;;;;;;2.67;2.47;;;33.10;30.00;;;;;;5041875;28;20449;-54
2022/08/10 13:30:37;;;;;;;2.25;2.05;;;33.30;30.40;;;;;;5046374;28;20041;-55
2022/08/10 13:33:12;;;;;;;2.80;2.08;;;33.50;29.80;;;;;;5055461;28;20129;-55
2022/08/10 13:35:42;;;;;;;3.88;2.20;;;33.70;29.70;;;;;;5037766;28;20045;-58
2022/08/10 13:38:14;;;;;;;2.47;2.28;;;33.80;29.50;;;;;;5047063;28;20041;-55
2022/08/10 13:40:47;;;;;;;2.42;2.22;;;34.20;29.10;;;;;;5050025;28;20075;-56
2022/08/10 13:43:16;;;;;;;2.97;2.53;;;34.70;29.50;;;;;;5049307;28;20185;-56
2022/08/10 13:45:45;;;;;;;2.85;1.80;;;35.50;29.10;;;;;;5043779;28;20103;-53
2022/08/10 13:48:21;;;;;;;1.90;1.80;;;36.40;29.00;;;;;;5040573;28;20089;-55
2022/08/10 13:50:51;;;;;;;4.57;2.00;;;37.50;28.70;;;;;;5049232;28;20037;-55
2022/08/10 13:53:19;;;;;;;2.05;1.85;;;38.70;27.90;;;;;;5046723;28;20571;-57
2022/08/10 13:55:54;;;;;;;1.70;1.60;;;40.00;27.50;;;;;;5040556;28;20053;-56
2022/08/10 13:58:31;;;;;;;2.20;1.95;;;41.20;26.70;;;;;;5048314;28;20083;-57